sensor_id;sensor_type;location;lat;lon;timestamp;P1;P2;P0
57798;PMS7003;43626;53.866;30.298;2023-05-07T00:02:07;13.2;11.6;6.8
57798;PMS7003;43626;53.866;30.298;2023-05-07T00:06:57;13.5;11.3;7
57798;PMS7003;43626;53.866;30.298;2023-05-07T00:11:57;14.6;11.4;7
57798;PMS7003;43626;53.866;30.298;2023-05-07T00:16:19;14.2;11.6;6.8
57798;PMS7003;43626;53.866;30.298;2023-05-07T00:22:08;13.2;11;6.6
57798;PMS7003;43626;53.866;30.298;2023-05-07T06:06:45;12;9;6
57798;PMS7003;43626;53.866;30.298;2023-05-07T06:12:05;9;8.3;5.5
57798;PMS7003;43626;53.866;30.298;2023-05-07T06:16:49;8.4;6.6;4.2
57798;PMS7003;43626;53.866;30.298;2023-05-07T06:21:19;13.4;11.6;7.6
57798;PMS7003;43626;53.866;30.298;2023-05-07T06:26:19;47.8;35.6;18.2
57798;PMS7003;43626;53.866;30.298;2023-05-07T06:32:06;13.8;10.2;6.2
57798;PMS7003;43626;53.866;30.298;2023-05-07T06:36:29;19;14;8
57798;PMS7003;43626;53.866;30.298;2023-05-07T06:42:03;5.6;5.2;3.4
57798;PMS7003;43626;53.866;30.298;2023-05-07T06:46:51;7.8;6;3.6
57798;PMS7003;43626;53.866;30.298;2023-05-07T06:51:31;64.6;39.2;14.4
57798;PMS7003;43626;53.866;30.298;2023-05-07T06:56:31;89.8;52.6;18.2
57798;PMS7003;43626;53.866;30.298;2023-05-07T07:01:45;15.8;13.4;8.4
57798;PMS7003;43626;53.866;30.298;2023-05-07T07:06:37;12.4;11.2;7.2
57798;PMS7003;43626;53.866;30.298;2023-05-07T07:11:57;6.8;5.8;4
57798;PMS7003;43626;53.866;30.298;2023-05-07T07:16:45;5.8;5.4;3.4
57798;PMS7003;43626;53.866;30.298;2023-05-07T07:21:19;8.6;6.2;3.8
57798;PMS7003;43626;53.866;30.298;2023-05-07T07:27:05;6.4;6;3.4
57798;PMS7003;43626;53.866;30.298;2023-05-07T07:32:05;30.8;22.4;11.4
57798;PMS7003;43626;53.866;30.298;2023-05-07T07:36:25;13.6;11;7
57798;PMS7003;43626;53.866;30.298;2023-05-07T07:41:19;6.4;5;3
57798;PMS7003;43626;53.866;30.298;2023-05-07T07:46:19;5;4.4;2.8
57798;PMS7003;43626;53.866;30.298;2023-05-07T07:52:05;106.6;62.4;20.6
57798;PMS7003;43626;53.866;30.298;2023-05-07T07:56:41;8;6.8;4.2
57798;PMS7003;43626;53.866;30.298;2023-05-07T08:01:31;6.8;5.4;3.4
57798;PMS7003;43626;53.866;30.298;2023-05-07T08:06:53;6.8;5.2;3.6
57798;PMS7003;43626;53.866;30.298;2023-05-07T08:11:31;6.5;6.3;3.8
57798;PMS7003;43626;53.866;30.298;2023-05-07T08:16:37;6;5;3.4
57798;PMS7003;43626;53.866;30.298;2023-05-07T08:21:38;7.6;5.8;3.4
57798;PMS7003;43626;53.866;30.298;2023-05-07T08:27:01;6.8;5.4;3.6
57798;PMS7003;43626;53.866;30.298;2023-05-07T08:31:19;6.2;5;3.2
57798;PMS7003;43626;53.866;30.298;2023-05-07T08:37:05;5;4.4;2.8
57798;PMS7003;43626;53.866;30.298;2023-05-07T08:42:05;5.4;4.2;3
57798;PMS7003;43626;53.866;30.298;2023-05-07T08:46:22;5.6;5;2.8
57798;PMS7003;43626;53.866;30.298;2023-05-07T08:51:20;6.2;5.2;3.4
57798;PMS7003;43626;53.866;30.298;2023-05-07T08:56:53;5;5;3.6
57798;PMS7003;43626;53.866;30.298;2023-05-07T09:01:49;6.6;5.2;3
57798;PMS7003;43626;53.866;30.298;2023-05-07T09:06:57;5.6;5;3.4
57798;PMS7003;43626;53.866;30.298;2023-05-07T09:11:45;5.8;4.6;2.8
57798;PMS7003;43626;53.866;30.298;2023-05-07T09:17:05;6.5;5.8;3.3
57798;PMS7003;43626;53.866;30.298;2023-05-07T09:21:50;6.8;5.6;3.6
57798;PMS7003;43626;53.866;30.298;2023-05-07T09:26:33;6.2;5.4;3.6
57798;PMS7003;43626;53.866;30.298;2023-05-07T09:31:31;6;5;3.2
57798;PMS7003;43626;53.866;30.298;2023-05-07T09:37:06;6.6;5.4;3.8
57798;PMS7003;43626;53.866;30.298;2023-05-07T09:41:19;7.2;6;3.8
57798;PMS7003;43626;53.866;30.298;2023-05-07T09:46:54;7;5.8;3.6
57798;PMS7003;43626;53.866;30.298;2023-05-07T09:51:53;8;6.8;4.2
57798;PMS7003;43626;53.866;30.298;2023-05-07T09:56:20;7.8;6.8;4.4
57798;PMS7003;43626;53.866;30.298;2023-05-07T10:01:47;8.4;7.2;4.6
57798;PMS7003;43626;53.866;30.298;2023-05-07T10:06:20;7.2;6;4
57798;PMS7003;43626;53.866;30.298;2023-05-07T10:11:19;7.6;6;3.6
57798;PMS7003;43626;53.866;30.298;2023-05-07T10:16:55;7.5;6.8;4.3
57798;PMS7003;43626;53.866;30.298;2023-05-07T10:21:59;7.8;6.2;4.2
57798;PMS7003;43626;53.866;30.298;2023-05-07T10:26:32;8.8;7.4;4.8
57798;PMS7003;43626;53.866;30.298;2023-05-07T10:31:50;28.8;23;13.2
57798;PMS7003;43626;53.866;30.298;2023-05-07T10:36:57;16.8;16.2;11
57798;PMS7003;43626;53.866;30.298;2023-05-07T10:42:07;17.8;16.4;11.6
57798;PMS7003;43626;53.866;30.298;2023-05-07T10:46:20;21;16.6;11.2
57798;PMS7003;43626;53.866;30.298;2023-05-07T10:52:25;20.4;16.4;10
57798;PMS7003;43626;53.866;30.298;2023-05-07T10:57:40;106.6;88.6;54.4
57798;PMS7003;43626;53.866;30.298;2023-05-07T11:02:03;62.8;50.6;33
57798;PMS7003;43626;53.866;30.298;2023-05-07T11:06:26;34;28;18.6
57798;PMS7003;43626;53.866;30.298;2023-05-07T11:12:06;24.8;18.8;12.2
57798;PMS7003;43626;53.866;30.298;2023-05-07T11:17:01;49.3;40.5;25
57798;PMS7003;43626;53.866;30.298;2023-05-07T11:21:36;14;11.8;7.2
57798;PMS7003;43626;53.866;30.298;2023-05-07T11:26:42;7;5.6;3.4
57798;PMS7003;43626;53.866;30.298;2023-05-07T11:32:06;12.6;10.8;7
57798;PMS7003;43626;53.866;30.298;2023-05-07T11:36:32;15;11.2;7.4
57798;PMS7003;43626;53.866;30.298;2023-05-07T11:41:54;28;20;11
57798;PMS7003;43626;53.866;30.298;2023-05-07T11:47:06;10;7.8;4.4
57798;PMS7003;43626;53.866;30.298;2023-05-07T11:51:20;6.4;4.8;3
57798;PMS7003;43626;53.866;30.298;2023-05-07T11:56:20;8.6;7.2;4
57798;PMS7003;43626;53.866;30.298;2023-05-07T12:01:32;19.2;16.2;9
57798;PMS7003;43626;53.866;30.298;2023-05-07T12:06:20;8.2;6.8;4
57798;PMS7003;43626;53.866;30.298;2023-05-07T12:11:58;13;11.4;6.8
57798;PMS7003;43626;53.866;30.298;2023-05-07T12:16:46;13;10.8;6.3
57798;PMS7003;43626;53.866;30.298;2023-05-07T12:21:30;12.4;11.4;6.6
57798;PMS7003;43626;53.866;30.298;2023-05-07T12:26:52;11.6;9.6;5.8
57798;PMS7003;43626;53.866;30.298;2023-05-07T12:32:06;19.2;13.6;6.4
57798;PMS7003;43626;53.866;30.298;2023-05-07T12:36:38;10.2;7;4.2
57798;PMS7003;43626;53.866;30.298;2023-05-07T12:41:30;15.4;12.6;6.2
57798;PMS7003;43626;53.866;30.298;2023-05-07T12:46:32;10.2;8.4;5
57798;PMS7003;43626;53.866;30.298;2023-05-07T12:52:06;18.6;15;7.8
57798;PMS7003;43626;53.866;30.298;2023-05-07T12:56:42;21.8;18.2;11.4
57798;PMS7003;43626;53.866;30.298;2023-05-07T13:01:20;9.2;7.8;5
57798;PMS7003;43626;53.866;30.298;2023-05-07T13:07:06;6.2;4.6;2.6
57798;PMS7003;43626;53.866;30.298;2023-05-07T13:11:34;18;15;7.4
57798;PMS7003;43626;53.866;30.298;2023-05-07T13:16:32;11.5;9;5.3
57798;PMS7003;43626;53.866;30.298;2023-05-07T13:21:38;7.2;6.6;4
57798;PMS7003;43626;53.866;30.298;2023-05-07T13:27:06;4.8;4.4;2.4
57798;PMS7003;43626;53.866;30.298;2023-05-07T13:31:32;4.8;4;2.2
57798;PMS7003;43626;53.866;30.298;2023-05-07T13:37:06;4.8;4;2.2
57798;PMS7003;43626;53.866;30.298;2023-05-07T13:41:54;6;5;2.8
57798;PMS7003;43626;53.866;30.298;2023-05-07T13:46:20;10.2;7.4;4.6
57798;PMS7003;43626;53.866;30.298;2023-05-07T13:51:42;6.4;5.2;3.2
57798;PMS7003;43626;53.866;30.298;2023-05-07T13:56:54;4.6;4.4;2.6
57798;PMS7003;43626;53.866;30.298;2023-05-07T14:01:52;5.6;4.8;2.4
57798;PMS7003;43626;53.866;30.298;2023-05-07T14:06:58;14.6;13.6;9.8
57798;PMS7003;43626;53.866;30.298;2023-05-07T14:11:20;17.4;15;8.6
57798;PMS7003;43626;53.866;30.298;2023-05-07T14:16:52;8.4;8.4;5.4
57798;PMS7003;43626;53.866;30.298;2023-05-07T14:22:08;9.8;8.5;5
57798;PMS7003;43626;53.866;30.298;2023-05-07T14:26:20;6.6;6;3.4
57798;PMS7003;43626;53.866;30.298;2023-05-07T14:31:32;4.8;4;2.4
57798;PMS7003;43626;53.866;30.298;2023-05-07T14:36:50;8.2;7;3.8
57798;PMS7003;43626;53.866;30.298;2023-05-07T14:41:30;23;17.4;9.8
57798;PMS7003;43626;53.866;30.298;2023-05-07T14:46:54;49.8;40;23
57798;PMS7003;43626;53.866;30.298;2023-05-07T14:51:54;40.4;33;17.6
57798;PMS7003;43626;53.866;30.298;2023-05-07T14:56:20;14.4;13.2;8.4
57798;PMS7003;43626;53.866;30.298;2023-05-07T15:01:22;9.6;8.6;4.4
57798;PMS7003;43626;53.866;30.298;2023-05-07T15:06:46;8;6;3.2
57798;PMS7003;43626;53.866;30.298;2023-05-07T15:11:32;8.6;6.4;4
57798;PMS7003;43626;53.866;30.298;2023-05-07T15:16:58;11.2;9.4;5.8
57798;PMS7003;43626;53.866;30.298;2023-05-07T15:21:44;5.5;4.5;3
57798;PMS7003;43626;53.866;30.298;2023-05-07T15:26:38;5.8;5.2;3
57798;PMS7003;43626;53.866;30.298;2023-05-07T15:31:50;6.4;4.8;2.6
57798;PMS7003;43626;53.866;30.298;2023-05-07T15:37:04;17;15.2;9.6
57798;PMS7003;43626;53.866;30.298;2023-05-07T15:41:38;55.4;43;22.8
57798;PMS7003;43626;53.866;30.298;2023-05-07T15:46:20;13.4;11.6;6.8
57798;PMS7003;43626;53.866;30.298;2023-05-07T15:51:20;14.2;11.8;7.4
57798;PMS7003;43626;53.866;30.298;2023-05-07T15:57:06;18;15.2;9.4
57798;PMS7003;43626;53.866;30.298;2023-05-07T16:01:42;8.4;7.8;4.4
57798;PMS7003;43626;53.866;30.298;2023-05-07T16:06:54;16;13.4;8.4
57798;PMS7003;43626;53.866;30.298;2023-05-07T16:12:06;10;8.6;5.8
57798;PMS7003;43626;53.866;30.298;2023-05-07T16:16:20;11.6;10.2;5.4
57798;PMS7003;43626;53.866;30.298;2023-05-07T16:21:30;10.8;9.8;6
57798;PMS7003;43626;53.866;30.298;2023-05-07T16:26:38;11.8;10.4;6.8
57798;PMS7003;43626;53.866;30.298;2023-05-07T16:32:06;11.8;9.4;5.8
57798;PMS7003;43626;53.866;30.298;2023-05-07T16:36:44;18.2;14.6;8.6
57798;PMS7003;43626;53.866;30.298;2023-05-07T16:42:06;36.6;29.4;17.6
57798;PMS7003;43626;53.866;30.298;2023-05-07T16:47:06;14.8;13.2;9.4
57798;PMS7003;43626;53.866;30.298;2023-05-07T16:51:20;8.2;6.2;4.2
57798;PMS7003;43626;53.866;30.298;2023-05-07T16:56:32;8.8;8;4.4
57798;PMS7003;43626;53.866;30.298;2023-05-07T17:01:56;10.4;9;5.8
57798;PMS7003;43626;53.866;30.298;2023-05-07T17:06:52;14.8;13;8.4
57798;PMS7003;43626;53.866;30.298;2023-05-07T17:11:32;14.6;11.8;7.4
57798;PMS7003;43626;53.866;30.298;2023-05-07T17:16:34;11.8;9;5.6
57798;PMS7003;43626;53.866;30.298;2023-05-07T17:22:08;23.3;18;12
57798;PMS7003;43626;53.866;30.298;2023-05-07T17:26:50;20.8;17.4;10.2
57798;PMS7003;43626;53.866;30.298;2023-05-07T17:31:30;19.4;17;11
57798;PMS7003;43626;53.866;30.298;2023-05-07T17:36:38;40.6;33;22.6
57798;PMS7003;43626;53.866;30.298;2023-05-07T17:42:06;26.2;22.4;15
57798;PMS7003;43626;53.866;30.298;2023-05-07T17:46:32;32.2;26.8;17.2
57798;PMS7003;43626;53.866;30.298;2023-05-07T17:52:06;24;19.4;12.8
57798;PMS7003;43626;53.866;30.298;2023-05-07T17:56:54;23.2;20;13.4
57798;PMS7003;43626;53.866;30.298;2023-05-07T18:01:30;25.4;22.4;13.8
57798;PMS7003;43626;53.866;30.298;2023-05-07T18:06:50;34;29.4;18.8
57798;PMS7003;43626;53.866;30.298;2023-05-07T18:11:32;22;19.4;13.4
57798;PMS7003;43626;53.866;30.298;2023-05-07T18:16:38;27.4;22.6;15.2
57798;PMS7003;43626;53.866;30.298;2023-05-07T18:21:46;27;23.4;14.4
57798;PMS7003;43626;53.866;30.298;2023-05-07T18:27:06;37;31;19.3
57798;PMS7003;43626;53.866;30.298;2023-05-07T18:31:46;47.4;36.6;23
57798;PMS7003;43626;53.866;30.298;2023-05-07T18:36:40;53.6;41.6;25.6
57798;PMS7003;43626;53.866;30.298;2023-05-07T18:41:48;56.8;43;27.2
57798;PMS7003;43626;53.866;30.298;2023-05-07T18:46:54;47.6;37.4;23.4
57798;PMS7003;43626;53.866;30.298;2023-05-07T18:51:42;45;34.6;21.4
57798;PMS7003;43626;53.866;30.298;2023-05-07T18:56:52;39.6;32.4;19.6
57798;PMS7003;43626;53.866;30.298;2023-05-07T19:02:08;40.4;32.4;19.2
57798;PMS7003;43626;53.866;30.298;2023-05-07T19:07:08;38.8;31;19.4
57798;PMS7003;43626;53.866;30.298;2023-05-07T19:11:21;40.2;33.4;20.6
57798;PMS7003;43626;53.866;30.298;2023-05-07T19:17:08;44.6;35.2;21.6
57798;PMS7003;43626;53.866;30.298;2023-05-07T19:21:46;49.6;39;25
57798;PMS7003;43626;53.866;30.298;2023-05-07T19:26:28;48.5;37.8;22.8
57798;PMS7003;43626;53.866;30.298;2023-05-07T19:31:38;52;39.6;25
57798;PMS7003;43626;53.866;30.298;2023-05-07T19:37:06;53.6;41.6;26.2
57798;PMS7003;43626;53.866;30.298;2023-05-07T19:41:34;55.6;41.8;26.2
57798;PMS7003;43626;53.866;30.298;2023-05-07T19:47:06;50.2;38.6;24
57798;PMS7003;43626;53.866;30.298;2023-05-07T19:52:06;43.8;34.8;21.8
57798;PMS7003;43626;53.866;30.298;2023-05-07T19:56:30;47.3;37.8;23.5
57798;PMS7003;43626;53.866;30.298;2023-05-07T20:01:42;47.6;38;24.2
57798;PMS7003;43626;53.866;30.298;2023-05-07T20:06:54;50.8;40;26
57798;PMS7003;43626;53.866;30.298;2023-05-07T20:11:50;54.4;43;27.2
57798;PMS7003;43626;53.866;30.298;2023-05-07T20:16:58;57.6;43.6;27.2
57798;PMS7003;43626;53.866;30.298;2023-05-07T20:21:46;54.8;43.6;27.6
57798;PMS7003;43626;53.866;30.298;2023-05-07T20:27:04;51.6;41.2;27.2
57798;PMS7003;43626;53.866;30.298;2023-05-07T20:31:28;52.4;41.4;26.2
57798;PMS7003;43626;53.866;30.298;2023-05-07T20:37:06;55.6;43.4;27.4
57798;PMS7003;43626;53.866;30.298;2023-05-07T20:41:20;57.3;43.8;27.8
57798;PMS7003;43626;53.866;30.298;2023-05-07T20:47:06;55.8;44;27.6
57798;PMS7003;43626;53.866;30.298;2023-05-07T20:51:20;55.6;43.8;27.6
57798;PMS7003;43626;53.866;30.298;2023-05-07T20:56:54;57;45;28.2
57798;PMS7003;43626;53.866;30.298;2023-05-07T21:01:54;57.2;44.8;28.2
57798;PMS7003;43626;53.866;30.298;2023-05-07T21:06:42;58.4;44.2;28
57798;PMS7003;43626;53.866;30.298;2023-05-07T21:11:50;59.8;46.8;29.6
57798;PMS7003;43626;53.866;30.298;2023-05-07T21:16:46;63;48.8;30
57798;PMS7003;43626;53.866;30.298;2023-05-07T21:21:20;63.2;47.8;29.6
57798;PMS7003;43626;53.866;30.298;2023-05-07T21:27:06;64;48;30
57798;PMS7003;43626;53.866;30.298;2023-05-07T21:31:58;60.2;46.4;28.6
57798;PMS7003;43626;53.866;30.298;2023-05-07T21:36:32;59;46.6;28.6
57798;PMS7003;43626;53.866;30.298;2023-05-07T21:41:50;59;45.5;28.3
57798;PMS7003;43626;53.866;30.298;2023-05-07T21:46:58;57.4;44.6;28
57798;PMS7003;43626;53.866;30.298;2023-05-07T21:51:52;60.6;45.8;28
57798;PMS7003;43626;53.866;30.298;2023-05-07T21:56:20;60.6;45.8;29.2
57798;PMS7003;43626;53.866;30.298;2023-05-07T22:01:54;59.2;45.8;28.6
57798;PMS7003;43626;53.866;30.298;2023-05-07T22:07:04;60.2;46.6;29
57798;PMS7003;43626;53.866;30.298;2023-05-07T22:12:06;61.2;47.4;29.4
57798;PMS7003;43626;53.866;30.298;2023-05-07T22:16:36;58.8;44.6;27.8
57798;PMS7003;43626;53.866;30.298;2023-05-07T22:22:04;59.2;44.6;28
57798;PMS7003;43626;53.866;30.298;2023-05-07T22:26:58;59;46.2;28.6
57798;PMS7003;43626;53.866;30.298;2023-05-07T22:31:32;57;45.2;28.6
57798;PMS7003;43626;53.866;30.298;2023-05-07T22:36:26;60;45.8;28.6
57798;PMS7003;43626;53.866;30.298;2023-05-07T22:42:04;61.4;46.6;28.8
57798;PMS7003;43626;53.866;30.298;2023-05-07T22:46:20;59.3;46;28.5
57798;PMS7003;43626;53.866;30.298;2023-05-07T22:52:06;57.2;45.4;28.2
57798;PMS7003;43626;53.866;30.298;2023-05-07T22:57:06;60;46.2;29.2
57798;PMS7003;43626;53.866;30.298;2023-05-07T23:01:32;59;44.4;27.8
57798;PMS7003;43626;53.866;30.298;2023-05-07T23:06:42;59;45;28.2
57798;PMS7003;43626;53.866;30.298;2023-05-07T23:11:46;58.6;45.4;28
57798;PMS7003;43626;53.866;30.298;2023-05-07T23:16:20;55.2;42.2;26.8
57798;PMS7003;43626;53.866;30.298;2023-05-07T23:21:58;55.6;43;26.6
57798;PMS7003;43626;53.866;30.298;2023-05-07T23:26:46;53.2;42.6;26.6
57798;PMS7003;43626;53.866;30.298;2023-05-07T23:31:38;53.6;41;25.2
57798;PMS7003;43626;53.866;30.298;2023-05-07T23:37:08;53.4;42.4;26
57798;PMS7003;43626;53.866;30.298;2023-05-07T23:41:34;52.2;41;25
57798;PMS7003;43626;53.866;30.298;2023-05-07T23:46:56;52;40.3;25.8
57798;PMS7003;43626;53.866;30.298;2023-05-07T23:52:08;52.2;40.2;25.6
57798;PMS7003;43626;53.866;30.298;2023-05-07T23:56:20;49.4;39.6;24.2
